sensor_id;sensor_type;location;lat;lon;timestamp;P1;durP1;ratioP1;P2;durP2;ratioP2
37047;SDS011;23227;48.780;9.210;2023-04-06T00:01:57;10.17;;;5.73;;
37047;SDS011;23227;48.780;9.210;2023-04-06T00:05:00;11.50;;;5.90;;
37047;SDS011;23227;48.780;9.210;2023-04-06T00:08:02;12.90;;;5.70;;
37047;SDS011;23227;48.780;9.210;2023-04-06T00:11:05;12.98;;;5.63;;
37047;SDS011;23227;48.780;9.210;2023-04-06T00:14:09;11.97;;;6.40;;
37047;SDS011;23227;48.780;9.210;2023-04-06T00:20:14;14.17;;;5.77;;
37047;SDS011;23227;48.780;9.210;2023-04-06T00:23:17;7.55;;;5.00;;
37047;SDS011;23227;48.780;9.210;2023-04-06T00:26:20;13.73;;;6.13;;
37047;SDS011;23227;48.780;9.210;2023-04-06T00:29:23;10.27;;;5.80;;
37047;SDS011;23227;48.780;9.210;2023-04-06T00:32:26;11.33;;;5.80;;
37047;SDS011;23227;48.780;9.210;2023-04-06T00:35:29;11.27;;;5.53;;
37047;SDS011;23227;48.780;9.210;2023-04-06T00:38:31;9.77;;;5.10;;
37047;SDS011;23227;48.780;9.210;2023-04-06T00:41:34;12.30;;;6.23;;
37047;SDS011;23227;48.780;9.210;2023-04-06T00:44:38;9.53;;;5.93;;
37047;SDS011;23227;48.780;9.210;2023-04-06T00:47:41;17.03;;;6.57;;
37047;SDS011;23227;48.780;9.210;2023-04-06T00:50:43;10.57;;;6.17;;
37047;SDS011;23227;48.780;9.210;2023-04-06T00:53:46;14.47;;;5.90;;
37047;SDS011;23227;48.780;9.210;2023-04-06T00:56:48;12.13;;;6.00;;
37047;SDS011;23227;48.780;9.210;2023-04-06T00:59:52;11.03;;;6.13;;
37047;SDS011;23227;48.780;9.210;2023-04-06T01:02:55;12.97;;;5.90;;
37047;SDS011;23227;48.780;9.210;2023-04-06T01:05:58;14.07;;;6.57;;
37047;SDS011;23227;48.780;9.210;2023-04-06T01:09:00;12.80;;;6.43;;
37047;SDS011;23227;48.780;9.210;2023-04-06T01:12:03;15.13;;;6.60;;
37047;SDS011;23227;48.780;9.210;2023-04-06T01:15:08;10.63;;;6.20;;
37047;SDS011;23227;48.780;9.210;2023-04-06T01:18:11;13.93;;;6.50;;
37047;SDS011;23227;48.780;9.210;2023-04-06T01:21:14;13.83;;;5.90;;
37047;SDS011;23227;48.780;9.210;2023-04-06T01:24:19;11.93;;;6.35;;
37047;SDS011;23227;48.780;9.210;2023-04-06T01:27:21;13.00;;;6.10;;
37047;SDS011;23227;48.780;9.210;2023-04-06T01:30:24;14.20;;;6.43;;
37047;SDS011;23227;48.780;9.210;2023-04-06T01:33:27;16.30;;;6.80;;
37047;SDS011;23227;48.780;9.210;2023-04-06T01:36:30;14.23;;;6.87;;
37047;SDS011;23227;48.780;9.210;2023-04-06T01:39:34;15.87;;;6.90;;
37047;SDS011;23227;48.780;9.210;2023-04-06T01:42:36;15.53;;;6.97;;
37047;SDS011;23227;48.780;9.210;2023-04-06T01:45:39;9.93;;;6.03;;
37047;SDS011;23227;48.780;9.210;2023-04-06T01:48:42;14.57;;;6.77;;
37047;SDS011;23227;48.780;9.210;2023-04-06T01:51:44;12.20;;;6.63;;
37047;SDS011;23227;48.780;9.210;2023-04-06T01:54:48;11.60;;;6.07;;
37047;SDS011;23227;48.780;9.210;2023-04-06T01:57:51;16.43;;;6.20;;
37047;SDS011;23227;48.780;9.210;2023-04-06T02:00:53;12.90;;;7.30;;
37047;SDS011;23227;48.780;9.210;2023-04-06T02:03:56;13.17;;;6.07;;
37047;SDS011;23227;48.780;9.210;2023-04-06T02:06:59;12.50;;;6.97;;
37047;SDS011;23227;48.780;9.210;2023-04-06T02:10:03;9.77;;;6.17;;
37047;SDS011;23227;48.780;9.210;2023-04-06T02:13:06;11.13;;;6.40;;
37047;SDS011;23227;48.780;9.210;2023-04-06T02:16:09;11.20;;;6.10;;
37047;SDS011;23227;48.780;9.210;2023-04-06T02:19:11;13.30;;;6.60;;
37047;SDS011;23227;48.780;9.210;2023-04-06T02:22:14;11.20;;;6.23;;
37047;SDS011;23227;48.780;9.210;2023-04-06T02:25:18;16.33;;;6.60;;
37047;SDS011;23227;48.780;9.210;2023-04-06T02:28:21;16.47;;;6.90;;
37047;SDS011;23227;48.780;9.210;2023-04-06T02:31:23;14.23;;;6.40;;
37047;SDS011;23227;48.780;9.210;2023-04-06T02:34:26;11.23;;;6.53;;
37047;SDS011;23227;48.780;9.210;2023-04-06T02:37:28;14.20;;;6.40;;
37047;SDS011;23227;48.780;9.210;2023-04-06T02:40:32;14.27;;;6.67;;
37047;SDS011;23227;48.780;9.210;2023-04-06T02:43:35;17.33;;;6.97;;
37047;SDS011;23227;48.780;9.210;2023-04-06T02:46:38;13.50;;;6.70;;
37047;SDS011;23227;48.780;9.210;2023-04-06T02:49:40;15.80;;;6.83;;
37047;SDS011;23227;48.780;9.210;2023-04-06T02:52:43;12.63;;;6.30;;
37047;SDS011;23227;48.780;9.210;2023-04-06T02:55:47;10.90;;;5.93;;
37047;SDS011;23227;48.780;9.210;2023-04-06T03:01:52;11.83;;;6.00;;
37047;SDS011;23227;48.780;9.210;2023-04-06T03:04:54;14.47;;;6.27;;
37047;SDS011;23227;48.780;9.210;2023-04-06T03:07:57;15.43;;;7.03;;
37047;SDS011;23227;48.780;9.210;2023-04-06T03:11:01;15.13;;;7.20;;
37047;SDS011;23227;48.780;9.210;2023-04-06T03:17:06;13.10;;;7.37;;
37047;SDS011;23227;48.780;9.210;2023-04-06T03:20:08;12.50;;;7.40;;
37047;SDS011;23227;48.780;9.210;2023-04-06T03:23:12;15.15;;;6.47;;
37047;SDS011;23227;48.780;9.210;2023-04-06T03:26:15;15.67;;;7.00;;
37047;SDS011;23227;48.780;9.210;2023-04-06T03:32:23;12.97;;;7.03;;
37047;SDS011;23227;48.780;9.210;2023-04-06T03:35:28;11.87;;;6.53;;
37047;SDS011;23227;48.780;9.210;2023-04-06T03:38:32;11.33;;;6.50;;
37047;SDS011;23227;48.780;9.210;2023-04-06T03:41:56;9.70;;;6.40;;
37047;SDS011;23227;48.780;9.210;2023-04-06T03:45:16;12.83;;;6.07;;
37047;SDS011;23227;48.780;9.210;2023-04-06T03:52:36;16.13;;;7.83;;
37047;SDS011;23227;48.780;9.210;2023-04-06T03:56:18;13.83;;;6.30;;
37047;SDS011;23227;48.780;9.210;2023-04-06T03:59:35;13.30;;;6.77;;
37047;SDS011;23227;48.780;9.210;2023-04-06T04:06:52;12.03;;;7.10;;
37047;SDS011;23227;48.780;9.210;2023-04-06T04:10:04;13.80;;;6.87;;
37047;SDS011;23227;48.780;9.210;2023-04-06T04:13:07;13.38;;;6.93;;
37047;SDS011;23227;48.780;9.210;2023-04-06T04:16:11;12.77;;;6.53;;
37047;SDS011;23227;48.780;9.210;2023-04-06T04:19:14;14.97;;;6.57;;
37047;SDS011;23227;48.780;9.210;2023-04-06T04:22:17;16.60;;;7.33;;
37047;SDS011;23227;48.780;9.210;2023-04-06T04:25:19;15.17;;;6.63;;
37047;SDS011;23227;48.780;9.210;2023-04-06T04:28:22;16.00;;;7.13;;
37047;SDS011;23227;48.780;9.210;2023-04-06T04:31:26;16.50;;;6.63;;
37047;SDS011;23227;48.780;9.210;2023-04-06T04:34:29;11.67;;;6.47;;
37047;SDS011;23227;48.780;9.210;2023-04-06T04:37:32;15.70;;;7.15;;
37047;SDS011;23227;48.780;9.210;2023-04-06T04:40:35;12.82;;;6.97;;
37047;SDS011;23227;48.780;9.210;2023-04-06T04:43:38;15.07;;;6.80;;
37047;SDS011;23227;48.780;9.210;2023-04-06T04:46:42;13.43;;;6.60;;
37047;SDS011;23227;48.780;9.210;2023-04-06T04:49:44;14.37;;;6.90;;
37047;SDS011;23227;48.780;9.210;2023-04-06T04:52:47;12.37;;;6.23;;
37047;SDS011;23227;48.780;9.210;2023-04-06T04:55:50;11.40;;;6.87;;
37047;SDS011;23227;48.780;9.210;2023-04-06T04:58:52;15.60;;;8.20;;
37047;SDS011;23227;48.780;9.210;2023-04-06T05:01:56;14.73;;;8.43;;
37047;SDS011;23227;48.780;9.210;2023-04-06T05:04:59;14.50;;;7.40;;
37047;SDS011;23227;48.780;9.210;2023-04-06T05:08:02;12.83;;;7.33;;
37047;SDS011;23227;48.780;9.210;2023-04-06T05:11:05;11.07;;;6.25;;
37047;SDS011;23227;48.780;9.210;2023-04-06T05:14:07;11.20;;;6.83;;
37047;SDS011;23227;48.780;9.210;2023-04-06T05:17:12;14.17;;;7.77;;
37047;SDS011;23227;48.780;9.210;2023-04-06T05:20:14;12.17;;;7.50;;
37047;SDS011;23227;48.780;9.210;2023-04-06T05:23:17;17.70;;;7.77;;
37047;SDS011;23227;48.780;9.210;2023-04-06T05:26:20;15.13;;;6.87;;
37047;SDS011;23227;48.780;9.210;2023-04-06T05:29:22;14.03;;;7.20;;
37047;SDS011;23227;48.780;9.210;2023-04-06T05:32:27;12.47;;;7.37;;
37047;SDS011;23227;48.780;9.210;2023-04-06T05:35:29;14.60;;;6.67;;
37047;SDS011;23227;48.780;9.210;2023-04-06T05:38:32;15.17;;;6.93;;
37047;SDS011;23227;48.780;9.210;2023-04-06T05:41:35;16.42;;;6.90;;
37047;SDS011;23227;48.780;9.210;2023-04-06T05:44:38;12.93;;;7.70;;
37047;SDS011;23227;48.780;9.210;2023-04-06T05:47:42;16.47;;;7.53;;
37047;SDS011;23227;48.780;9.210;2023-04-06T05:50:47;13.30;;;6.80;;
37047;SDS011;23227;48.780;9.210;2023-04-06T05:53:50;16.17;;;7.40;;
37047;SDS011;23227;48.780;9.210;2023-04-06T05:56:53;15.13;;;6.80;;
37047;SDS011;23227;48.780;9.210;2023-04-06T05:59:55;19.57;;;6.97;;
37047;SDS011;23227;48.780;9.210;2023-04-06T06:02:59;19.13;;;7.20;;
37047;SDS011;23227;48.780;9.210;2023-04-06T06:06:05;17.93;;;7.07;;
37047;SDS011;23227;48.780;9.210;2023-04-06T06:09:08;12.40;;;6.83;;
37047;SDS011;23227;48.780;9.210;2023-04-06T06:12:10;13.20;;;7.27;;
37047;SDS011;23227;48.780;9.210;2023-04-06T06:15:15;17.50;;;7.20;;
37047;SDS011;23227;48.780;9.210;2023-04-06T06:18:19;14.80;;;7.47;;
37047;SDS011;23227;48.780;9.210;2023-04-06T06:21:21;12.90;;;7.23;;
37047;SDS011;23227;48.780;9.210;2023-04-06T06:24:24;14.50;;;7.13;;
37047;SDS011;23227;48.780;9.210;2023-04-06T06:27:26;15.07;;;7.10;;
37047;SDS011;23227;48.780;9.210;2023-04-06T06:30:43;13.13;;;7.07;;
37047;SDS011;23227;48.780;9.210;2023-04-06T06:33:47;13.70;;;7.60;;
37047;SDS011;23227;48.780;9.210;2023-04-06T06:36:51;13.23;;;6.93;;
37047;SDS011;23227;48.780;9.210;2023-04-06T06:39:56;16.50;;;7.60;;
37047;SDS011;23227;48.780;9.210;2023-04-06T06:42:58;15.40;;;7.47;;
37047;SDS011;23227;48.780;9.210;2023-04-06T06:46:01;15.27;;;7.53;;
37047;SDS011;23227;48.780;9.210;2023-04-06T06:49:05;14.50;;;7.73;;
37047;SDS011;23227;48.780;9.210;2023-04-06T06:55:10;15.00;;;7.50;;
37047;SDS011;23227;48.780;9.210;2023-04-06T06:58:13;15.10;;;7.03;;
37047;SDS011;23227;48.780;9.210;2023-04-06T07:01:15;21.07;;;8.13;;
37047;SDS011;23227;48.780;9.210;2023-04-06T07:04:19;22.53;;;7.93;;
37047;SDS011;23227;48.780;9.210;2023-04-06T07:07:22;17.23;;;7.93;;
37047;SDS011;23227;48.780;9.210;2023-04-06T07:10:26;16.17;;;6.93;;
37047;SDS011;23227;48.780;9.210;2023-04-06T07:16:31;14.83;;;7.63;;
37047;SDS011;23227;48.780;9.210;2023-04-06T07:19:35;14.10;;;7.53;;
37047;SDS011;23227;48.780;9.210;2023-04-06T07:22:37;15.20;;;8.07;;
37047;SDS011;23227;48.780;9.210;2023-04-06T07:25:40;15.43;;;7.40;;
37047;SDS011;23227;48.780;9.210;2023-04-06T07:28:43;19.33;;;7.73;;
37047;SDS011;23227;48.780;9.210;2023-04-06T07:31:46;15.65;;;7.60;;
37047;SDS011;23227;48.780;9.210;2023-04-06T07:34:51;23.17;;;8.53;;
37047;SDS011;23227;48.780;9.210;2023-04-06T07:37:54;14.83;;;7.77;;
37047;SDS011;23227;48.780;9.210;2023-04-06T07:40:56;15.23;;;8.13;;
37047;SDS011;23227;48.780;9.210;2023-04-06T07:43:59;16.20;;;8.07;;
37047;SDS011;23227;48.780;9.210;2023-04-06T07:47:02;17.90;;;8.63;;
37047;SDS011;23227;48.780;9.210;2023-04-06T07:50:06;18.13;;;8.97;;
37047;SDS011;23227;48.780;9.210;2023-04-06T07:53:09;17.37;;;7.80;;
37047;SDS011;23227;48.780;9.210;2023-04-06T07:56:12;15.47;;;7.70;;
37047;SDS011;23227;48.780;9.210;2023-04-06T07:59:16;13.60;;;8.10;;
37047;SDS011;23227;48.780;9.210;2023-04-06T08:02:19;13.43;;;7.47;;
37047;SDS011;23227;48.780;9.210;2023-04-06T08:05:23;15.67;;;8.23;;
37047;SDS011;23227;48.780;9.210;2023-04-06T08:08:26;26.10;;;8.53;;
37047;SDS011;23227;48.780;9.210;2023-04-06T08:11:28;20.03;;;7.57;;
37047;SDS011;23227;48.780;9.210;2023-04-06T08:14:31;18.77;;;8.40;;
37047;SDS011;23227;48.780;9.210;2023-04-06T08:17:33;13.97;;;7.67;;
37047;SDS011;23227;48.780;9.210;2023-04-06T08:20:38;15.20;;;8.70;;
37047;SDS011;23227;48.780;9.210;2023-04-06T08:23:41;20.10;;;9.47;;
37047;SDS011;23227;48.780;9.210;2023-04-06T08:26:43;13.90;;;7.53;;
37047;SDS011;23227;48.780;9.210;2023-04-06T08:29:47;18.27;;;8.45;;
37047;SDS011;23227;48.780;9.210;2023-04-06T08:32:51;15.00;;;8.83;;
37047;SDS011;23227;48.780;9.210;2023-04-06T08:35:55;15.17;;;8.60;;
37047;SDS011;23227;48.780;9.210;2023-04-06T08:38:58;20.23;;;8.60;;
37047;SDS011;23227;48.780;9.210;2023-04-06T08:45:05;17.27;;;8.37;;
37047;SDS011;23227;48.780;9.210;2023-04-06T08:51:12;22.33;;;8.67;;
37047;SDS011;23227;48.780;9.210;2023-04-06T08:54:15;14.67;;;8.03;;
37047;SDS011;23227;48.780;9.210;2023-04-06T08:57:17;17.60;;;7.93;;
37047;SDS011;23227;48.780;9.210;2023-04-06T09:00:21;17.40;;;9.10;;
37047;SDS011;23227;48.780;9.210;2023-04-06T09:03:24;12.45;;;7.60;;
37047;SDS011;23227;48.780;9.210;2023-04-06T09:06:30;15.93;;;8.60;;
37047;SDS011;23227;48.780;9.210;2023-04-06T09:09:33;16.03;;;7.30;;
37047;SDS011;23227;48.780;9.210;2023-04-06T09:12:35;17.90;;;7.50;;
37047;SDS011;23227;48.780;9.210;2023-04-06T09:15:38;15.03;;;6.93;;
37047;SDS011;23227;48.780;9.210;2023-04-06T09:18:42;13.97;;;7.27;;
37047;SDS011;23227;48.780;9.210;2023-04-06T09:21:46;15.30;;;7.33;;
37047;SDS011;23227;48.780;9.210;2023-04-06T09:24:49;12.50;;;7.13;;
37047;SDS011;23227;48.780;9.210;2023-04-06T09:27:59;15.70;;;7.53;;
37047;SDS011;23227;48.780;9.210;2023-04-06T09:31:02;16.20;;;8.33;;
37047;SDS011;23227;48.780;9.210;2023-04-06T09:34:05;18.73;;;7.60;;
37047;SDS011;23227;48.780;9.210;2023-04-06T09:37:13;11.90;;;6.88;;
37047;SDS011;23227;48.780;9.210;2023-04-06T09:40:16;13.30;;;7.07;;
37047;SDS011;23227;48.780;9.210;2023-04-06T09:43:23;10.73;;;6.53;;
37047;SDS011;23227;48.780;9.210;2023-04-06T09:46:27;10.33;;;6.00;;
37047;SDS011;23227;48.780;9.210;2023-04-06T09:49:30;12.52;;;6.30;;
37047;SDS011;23227;48.780;9.210;2023-04-06T09:52:36;9.82;;;5.53;;
37047;SDS011;23227;48.780;9.210;2023-04-06T09:55:42;9.63;;;5.47;;
37047;SDS011;23227;48.780;9.210;2023-04-06T09:58:45;11.50;;;6.10;;
37047;SDS011;23227;48.780;9.210;2023-04-06T10:04:53;8.87;;;4.53;;
37047;SDS011;23227;48.780;9.210;2023-04-06T10:08:00;8.10;;;4.93;;
37047;SDS011;23227;48.780;9.210;2023-04-06T10:11:07;8.47;;;5.10;;
37047;SDS011;23227;48.780;9.210;2023-04-06T10:14:10;14.13;;;5.93;;
37047;SDS011;23227;48.780;9.210;2023-04-06T10:17:13;9.88;;;5.22;;
37047;SDS011;23227;48.780;9.210;2023-04-06T10:20:16;10.07;;;5.87;;
37047;SDS011;23227;48.780;9.210;2023-04-06T10:23:26;7.43;;;5.27;;
37047;SDS011;23227;48.780;9.210;2023-04-06T10:26:33;7.20;;;4.40;;
37047;SDS011;23227;48.780;9.210;2023-04-06T10:29:42;10.43;;;5.67;;
37047;SDS011;23227;48.780;9.210;2023-04-06T10:32:46;11.97;;;5.73;;
37047;SDS011;23227;48.780;9.210;2023-04-06T10:35:48;11.00;;;5.47;;
37047;SDS011;23227;48.780;9.210;2023-04-06T10:38:56;8.07;;;4.70;;
37047;SDS011;23227;48.780;9.210;2023-04-06T10:42:05;7.00;;;4.47;;
37047;SDS011;23227;48.780;9.210;2023-04-06T10:45:18;10.67;;;5.37;;
37047;SDS011;23227;48.780;9.210;2023-04-06T10:48:21;10.00;;;4.77;;
37047;SDS011;23227;48.780;9.210;2023-04-06T10:51:26;13.40;;;5.63;;
37047;SDS011;23227;48.780;9.210;2023-04-06T10:54:30;12.10;;;5.17;;
37047;SDS011;23227;48.780;9.210;2023-04-06T10:57:33;9.13;;;4.70;;
37047;SDS011;23227;48.780;9.210;2023-04-06T11:00:43;9.30;;;5.40;;
37047;SDS011;23227;48.780;9.210;2023-04-06T11:03:52;9.37;;;4.40;;
37047;SDS011;23227;48.780;9.210;2023-04-06T11:06:59;8.03;;;4.73;;
37047;SDS011;23227;48.780;9.210;2023-04-06T11:10:03;7.93;;;4.00;;
37047;SDS011;23227;48.780;9.210;2023-04-06T11:13:17;8.97;;;4.90;;
37047;SDS011;23227;48.780;9.210;2023-04-06T11:16:21;8.03;;;5.40;;
37047;SDS011;23227;48.780;9.210;2023-04-06T11:22:26;7.47;;;4.00;;
37047;SDS011;23227;48.780;9.210;2023-04-06T11:25:30;6.10;;;4.70;;
37047;SDS011;23227;48.780;9.210;2023-04-06T11:28:33;7.73;;;4.53;;
37047;SDS011;23227;48.780;9.210;2023-04-06T11:31:37;7.38;;;4.40;;
37047;SDS011;23227;48.780;9.210;2023-04-06T11:34:43;8.47;;;4.63;;
37047;SDS011;23227;48.780;9.210;2023-04-06T11:37:49;7.57;;;4.60;;
37047;SDS011;23227;48.780;9.210;2023-04-06T11:40:53;10.98;;;5.50;;
37047;SDS011;23227;48.780;9.210;2023-04-06T11:43:56;8.27;;;4.80;;
37047;SDS011;23227;48.780;9.210;2023-04-06T11:47:00;9.45;;;5.28;;
37047;SDS011;23227;48.780;9.210;2023-04-06T11:50:06;7.50;;;4.50;;
37047;SDS011;23227;48.780;9.210;2023-04-06T11:53:09;9.17;;;4.57;;
37047;SDS011;23227;48.780;9.210;2023-04-06T11:56:23;8.13;;;4.57;;
37047;SDS011;23227;48.780;9.210;2023-04-06T11:59:26;8.83;;;4.80;;
37047;SDS011;23227;48.780;9.210;2023-04-06T12:02:29;6.90;;;4.70;;
37047;SDS011;23227;48.780;9.210;2023-04-06T12:05:33;15.10;;;5.20;;
37047;SDS011;23227;48.780;9.210;2023-04-06T12:08:36;12.32;;;4.60;;
37047;SDS011;23227;48.780;9.210;2023-04-06T12:11:40;8.25;;;4.43;;
37047;SDS011;23227;48.780;9.210;2023-04-06T12:14:43;7.10;;;4.30;;
37047;SDS011;23227;48.780;9.210;2023-04-06T12:17:45;6.28;;;4.18;;
37047;SDS011;23227;48.780;9.210;2023-04-06T12:20:48;7.65;;;4.22;;
37047;SDS011;23227;48.780;9.210;2023-04-06T12:23:51;4.93;;;3.70;;
37047;SDS011;23227;48.780;9.210;2023-04-06T12:26:55;6.37;;;4.10;;
37047;SDS011;23227;48.780;9.210;2023-04-06T12:30:10;6.37;;;4.30;;
37047;SDS011;23227;48.780;9.210;2023-04-06T12:36:17;4.77;;;3.60;;
37047;SDS011;23227;48.780;9.210;2023-04-06T12:39:20;6.20;;;3.70;;
37047;SDS011;23227;48.780;9.210;2023-04-06T12:42:25;6.60;;;3.63;;
37047;SDS011;23227;48.780;9.210;2023-04-06T12:45:27;5.43;;;3.73;;
37047;SDS011;23227;48.780;9.210;2023-04-06T12:48:30;8.02;;;3.92;;
37047;SDS011;23227;48.780;9.210;2023-04-06T12:51:33;6.03;;;3.70;;
37047;SDS011;23227;48.780;9.210;2023-04-06T12:54:35;9.50;;;5.13;;
37047;SDS011;23227;48.780;9.210;2023-04-06T12:57:39;9.02;;;4.93;;
37047;SDS011;23227;48.780;9.210;2023-04-06T13:00:44;7.33;;;4.67;;
37047;SDS011;23227;48.780;9.210;2023-04-06T13:03:46;7.00;;;4.15;;
37047;SDS011;23227;48.780;9.210;2023-04-06T13:06:49;6.63;;;4.18;;
37047;SDS011;23227;48.780;9.210;2023-04-06T13:09:52;7.15;;;3.67;;
37047;SDS011;23227;48.780;9.210;2023-04-06T13:12:56;4.82;;;3.35;;
37047;SDS011;23227;48.780;9.210;2023-04-06T13:15:59;7.23;;;4.50;;
37047;SDS011;23227;48.780;9.210;2023-04-06T13:19:03;6.83;;;4.10;;
37047;SDS011;23227;48.780;9.210;2023-04-06T13:22:05;6.03;;;3.67;;
37047;SDS011;23227;48.780;9.210;2023-04-06T13:25:11;6.07;;;4.00;;
37047;SDS011;23227;48.780;9.210;2023-04-06T13:28:15;10.38;;;3.92;;
37047;SDS011;23227;48.780;9.210;2023-04-06T13:31:18;6.87;;;3.93;;
37047;SDS011;23227;48.780;9.210;2023-04-06T13:34:20;6.97;;;4.20;;
37047;SDS011;23227;48.780;9.210;2023-04-06T13:37:23;11.98;;;4.20;;
37047;SDS011;23227;48.780;9.210;2023-04-06T13:40:26;12.02;;;4.40;;
37047;SDS011;23227;48.780;9.210;2023-04-06T13:43:30;6.72;;;4.20;;
37047;SDS011;23227;48.780;9.210;2023-04-06T13:46:32;6.07;;;4.00;;
37047;SDS011;23227;48.780;9.210;2023-04-06T13:49:35;5.60;;;3.92;;
37047;SDS011;23227;48.780;9.210;2023-04-06T13:52:38;5.88;;;4.18;;
37047;SDS011;23227;48.780;9.210;2023-04-06T13:55:40;7.68;;;4.38;;
37047;SDS011;23227;48.780;9.210;2023-04-06T13:58:44;6.55;;;4.47;;
37047;SDS011;23227;48.780;9.210;2023-04-06T14:01:47;6.10;;;4.47;;
37047;SDS011;23227;48.780;9.210;2023-04-06T14:04:50;8.70;;;4.38;;
37047;SDS011;23227;48.780;9.210;2023-04-06T14:07:53;5.60;;;3.92;;
37047;SDS011;23227;48.780;9.210;2023-04-06T14:14:00;7.30;;;4.73;;
37047;SDS011;23227;48.780;9.210;2023-04-06T14:17:03;6.33;;;4.10;;
37047;SDS011;23227;48.780;9.210;2023-04-06T14:20:06;5.90;;;4.10;;
37047;SDS011;23227;48.780;9.210;2023-04-06T14:23:15;7.77;;;4.30;;
37047;SDS011;23227;48.780;9.210;2023-04-06T14:26:17;6.07;;;4.05;;
37047;SDS011;23227;48.780;9.210;2023-04-06T14:29:22;9.75;;;4.07;;
37047;SDS011;23227;48.780;9.210;2023-04-06T14:32:24;8.83;;;5.23;;
37047;SDS011;23227;48.780;9.210;2023-04-06T14:35:27;10.40;;;4.43;;
37047;SDS011;23227;48.780;9.210;2023-04-06T14:38:32;8.37;;;4.70;;
37047;SDS011;23227;48.780;9.210;2023-04-06T14:41:34;7.63;;;4.75;;
37047;SDS011;23227;48.780;9.210;2023-04-06T14:44:38;7.13;;;4.20;;
37047;SDS011;23227;48.780;9.210;2023-04-06T14:47:44;6.33;;;4.10;;
37047;SDS011;23227;48.780;9.210;2023-04-06T14:50:51;6.53;;;4.00;;
37047;SDS011;23227;48.780;9.210;2023-04-06T14:53:54;7.07;;;3.93;;
37047;SDS011;23227;48.780;9.210;2023-04-06T14:56:57;6.30;;;3.60;;
37047;SDS011;23227;48.780;9.210;2023-04-06T15:00:01;9.15;;;4.00;;
37047;SDS011;23227;48.780;9.210;2023-04-06T15:03:04;6.53;;;4.00;;
37047;SDS011;23227;48.780;9.210;2023-04-06T15:06:11;7.38;;;4.20;;
37047;SDS011;23227;48.780;9.210;2023-04-06T15:09:16;8.13;;;4.40;;
37047;SDS011;23227;48.780;9.210;2023-04-06T15:12:18;6.85;;;3.97;;
37047;SDS011;23227;48.780;9.210;2023-04-06T15:15:23;9.65;;;4.43;;
37047;SDS011;23227;48.780;9.210;2023-04-06T15:18:25;7.47;;;4.03;;
37047;SDS011;23227;48.780;9.210;2023-04-06T15:21:28;6.53;;;3.83;;
37047;SDS011;23227;48.780;9.210;2023-04-06T15:24:31;9.57;;;4.43;;
37047;SDS011;23227;48.780;9.210;2023-04-06T15:27:34;7.40;;;4.63;;
37047;SDS011;23227;48.780;9.210;2023-04-06T15:30:38;7.18;;;4.30;;
37047;SDS011;23227;48.780;9.210;2023-04-06T15:33:41;7.30;;;4.03;;
37047;SDS011;23227;48.780;9.210;2023-04-06T15:36:45;8.73;;;4.30;;
37047;SDS011;23227;48.780;9.210;2023-04-06T15:39:48;8.18;;;4.35;;
37047;SDS011;23227;48.780;9.210;2023-04-06T15:42:51;9.00;;;4.18;;
37047;SDS011;23227;48.780;9.210;2023-04-06T15:45:54;10.32;;;3.60;;
37047;SDS011;23227;48.780;9.210;2023-04-06T15:48:57;7.27;;;3.70;;
37047;SDS011;23227;48.780;9.210;2023-04-06T15:52:00;8.90;;;5.03;;
37047;SDS011;23227;48.780;9.210;2023-04-06T15:55:03;5.85;;;3.60;;
37047;SDS011;23227;48.780;9.210;2023-04-06T15:58:07;8.20;;;4.17;;
37047;SDS011;23227;48.780;9.210;2023-04-06T16:01:12;8.45;;;4.65;;
37047;SDS011;23227;48.780;9.210;2023-04-06T16:04:15;9.57;;;4.83;;
37047;SDS011;23227;48.780;9.210;2023-04-06T16:07:18;7.72;;;4.68;;
37047;SDS011;23227;48.780;9.210;2023-04-06T16:10:21;5.78;;;4.10;;
37047;SDS011;23227;48.780;9.210;2023-04-06T16:13:23;6.60;;;4.07;;
37047;SDS011;23227;48.780;9.210;2023-04-06T16:16:27;8.27;;;4.50;;
37047;SDS011;23227;48.780;9.210;2023-04-06T16:19:30;9.63;;;4.83;;
37047;SDS011;23227;48.780;9.210;2023-04-06T16:22:33;17.77;;;4.53;;
37047;SDS011;23227;48.780;9.210;2023-04-06T16:25:37;7.00;;;3.90;;
37047;SDS011;23227;48.780;9.210;2023-04-06T16:28:40;10.57;;;4.75;;
37047;SDS011;23227;48.780;9.210;2023-04-06T16:31:44;7.47;;;4.10;;
37047;SDS011;23227;48.780;9.210;2023-04-06T16:34:48;10.77;;;4.33;;
37047;SDS011;23227;48.780;9.210;2023-04-06T16:37:51;9.68;;;4.20;;
37047;SDS011;23227;48.780;9.210;2023-04-06T16:40:58;10.55;;;5.35;;
37047;SDS011;23227;48.780;9.210;2023-04-06T16:44:01;7.33;;;4.27;;
37047;SDS011;23227;48.780;9.210;2023-04-06T16:47:05;8.88;;;4.55;;
37047;SDS011;23227;48.780;9.210;2023-04-06T16:50:09;10.50;;;5.33;;
37047;SDS011;23227;48.780;9.210;2023-04-06T16:53:12;15.30;;;4.80;;
37047;SDS011;23227;48.780;9.210;2023-04-06T16:56:14;14.88;;;5.55;;
37047;SDS011;23227;48.780;9.210;2023-04-06T16:59:17;10.40;;;5.82;;
37047;SDS011;23227;48.780;9.210;2023-04-06T17:02:22;12.05;;;5.60;;
37047;SDS011;23227;48.780;9.210;2023-04-06T17:05:24;11.27;;;6.33;;
37047;SDS011;23227;48.780;9.210;2023-04-06T17:08:27;10.32;;;6.35;;
37047;SDS011;23227;48.780;9.210;2023-04-06T17:11:30;13.23;;;6.30;;
37047;SDS011;23227;48.780;9.210;2023-04-06T17:14:46;11.60;;;5.70;;
37047;SDS011;23227;48.780;9.210;2023-04-06T17:17:50;12.68;;;6.97;;
37047;SDS011;23227;48.780;9.210;2023-04-06T17:20:54;8.70;;;6.03;;
37047;SDS011;23227;48.780;9.210;2023-04-06T17:23:56;10.80;;;4.93;;
37047;SDS011;23227;48.780;9.210;2023-04-06T17:26:59;8.13;;;4.78;;
37047;SDS011;23227;48.780;9.210;2023-04-06T17:30:03;10.63;;;4.20;;
37047;SDS011;23227;48.780;9.210;2023-04-06T17:39:13;7.97;;;4.33;;
37047;SDS011;23227;48.780;9.210;2023-04-06T17:42:15;7.40;;;3.87;;
37047;SDS011;23227;48.780;9.210;2023-04-06T17:45:19;9.95;;;4.75;;
37047;SDS011;23227;48.780;9.210;2023-04-06T17:48:23;7.23;;;3.53;;
37047;SDS011;23227;48.780;9.210;2023-04-06T17:51:26;8.40;;;3.40;;
37047;SDS011;23227;48.780;9.210;2023-04-06T17:54:29;6.87;;;3.57;;
37047;SDS011;23227;48.780;9.210;2023-04-06T17:57:32;6.20;;;4.03;;
37047;SDS011;23227;48.780;9.210;2023-04-06T18:00:34;8.30;;;3.10;;
37047;SDS011;23227;48.780;9.210;2023-04-06T18:03:38;6.93;;;3.70;;
37047;SDS011;23227;48.780;9.210;2023-04-06T18:06:41;7.83;;;4.13;;
37047;SDS011;23227;48.780;9.210;2023-04-06T18:09:44;6.15;;;3.72;;
37047;SDS011;23227;48.780;9.210;2023-04-06T18:12:46;10.07;;;4.43;;
37047;SDS011;23227;48.780;9.210;2023-04-06T18:15:49;7.05;;;3.65;;
37047;SDS011;23227;48.780;9.210;2023-04-06T18:18:55;8.17;;;4.43;;
37047;SDS011;23227;48.780;9.210;2023-04-06T18:21:58;11.13;;;4.57;;
37047;SDS011;23227;48.780;9.210;2023-04-06T18:25:01;8.80;;;4.00;;
37047;SDS011;23227;48.780;9.210;2023-04-06T18:28:04;13.17;;;4.37;;
37047;SDS011;23227;48.780;9.210;2023-04-06T18:31:07;9.30;;;4.30;;
37047;SDS011;23227;48.780;9.210;2023-04-06T18:34:11;8.05;;;3.75;;
37047;SDS011;23227;48.780;9.210;2023-04-06T18:37:13;8.43;;;3.57;;
37047;SDS011;23227;48.780;9.210;2023-04-06T18:43:34;11.13;;;4.37;;
37047;SDS011;23227;48.780;9.210;2023-04-06T18:46:38;7.22;;;4.28;;
37047;SDS011;23227;48.780;9.210;2023-04-06T18:49:42;5.25;;;3.00;;
37047;SDS011;23227;48.780;9.210;2023-04-06T18:52:44;8.67;;;3.37;;
37047;SDS011;23227;48.780;9.210;2023-04-06T18:55:48;5.30;;;2.80;;
37047;SDS011;23227;48.780;9.210;2023-04-06T18:58:51;6.40;;;3.33;;
37047;SDS011;23227;48.780;9.210;2023-04-06T19:01:54;7.97;;;3.30;;
37047;SDS011;23227;48.780;9.210;2023-04-06T19:04:59;6.07;;;3.60;;
37047;SDS011;23227;48.780;9.210;2023-04-06T19:08:03;6.73;;;3.63;;
37047;SDS011;23227;48.780;9.210;2023-04-06T19:11:06;6.00;;;3.60;;
37047;SDS011;23227;48.780;9.210;2023-04-06T19:14:09;9.95;;;3.95;;